< < Back
Terminal Aerodrome Forecast


Current Version              Previous Versions:   1  2  3  4  5  6  7  8  9  

Terminal Aerodrome Forecast

308
FTUS42 KILM 270500
TAFFLO
TAF
KFLO 270533Z 2706/2806 22004KT 6SM BR SCT100
     FM271100 24008KT P6SM SCT080 WS020/26035KT
     FM271400 29013G20KT P6SM SCT050
     FM272300 33007KT P6SM SKC=

Latest METAR

395
SAUS70 KWBC 271600 RRA
MTRFLO
METAR KFLO 271553Z 30016G23KT 10SM CLR 11/01 A3007 RMK AO2 SLP183
T01110011


USA.gov is the U.S. government's official web portal to all federal, state and local government web resources and services.